createdAt,value
2017-08-12T00:02:34.882Z,12.43
2017-08-12T00:07:41.347Z,13.30
2017-08-12T00:12:43.628Z,12.70
2017-08-12T00:17:45.996Z,13.30
2017-08-12T00:22:49.430Z,12.47
2017-08-12T00:27:56.582Z,12.53
2017-08-12T00:33:02.903Z,13.20
2017-08-12T00:38:08.322Z,13.70
2017-08-12T00:43:12.926Z,13.80
2017-08-12T00:48:17.624Z,14.13
2017-08-12T00:53:20.597Z,13.77
2017-08-12T00:58:23.610Z,15.23
2017-08-12T01:03:26.092Z,15.70
2017-08-12T01:08:28.831Z,16.50
2017-08-12T01:13:32.188Z,17.20
2017-08-12T01:18:34.437Z,18.13
2017-08-12T01:23:36.855Z,16.10
2017-08-12T01:28:38.990Z,17.10
2017-08-12T01:33:40.910Z,18.97
2017-08-12T01:38:43.532Z,16.50
2017-08-12T01:43:45.727Z,15.63
2017-08-12T01:48:49.030Z,15.10
2017-08-12T01:53:51.926Z,13.30
2017-08-12T01:58:53.863Z,14.10
2017-08-12T02:03:55.823Z,15.10
2017-08-12T02:08:57.845Z,14.60
2017-08-12T02:13:59.803Z,13.13
2017-08-12T02:19:01.727Z,13.53
2017-08-12T02:24:03.719Z,14.13
2017-08-12T02:29:05.639Z,16.07
2017-08-12T02:34:07.581Z,17.37
2017-08-12T02:39:09.528Z,16.93
2017-08-12T02:44:11.472Z,17.60
2017-08-12T02:49:13.458Z,18.70
2017-08-12T02:54:15.382Z,17.50
2017-08-12T02:59:17.379Z,17.00
2017-08-12T03:04:19.814Z,16.73
2017-08-12T03:09:22.534Z,17.33
2017-08-12T03:14:24.629Z,18.20
2017-08-12T03:19:27.073Z,19.00
2017-08-12T03:24:29.070Z,18.27
2017-08-12T03:29:31.751Z,18.80
2017-08-12T03:34:33.691Z,21.97
2017-08-12T03:39:36.418Z,23.47
2017-08-12T03:44:38.330Z,22.97
2017-08-12T03:49:40.297Z,23.90
2017-08-12T03:54:42.218Z,24.27
2017-08-12T03:59:44.466Z,26.00
2017-08-12T04:04:46.446Z,26.20
2017-08-12T04:09:48.439Z,24.33
2017-08-12T04:14:50.443Z,25.83
2017-08-12T04:19:52.775Z,25.90
2017-08-12T04:24:54.755Z,27.87
2017-08-12T04:29:56.755Z,27.43
2017-08-12T04:34:58.700Z,31.30
2017-08-12T04:40:03.266Z,31.17
2017-08-12T04:45:05.331Z,33.20
2017-08-12T04:50:08.128Z,36.53
2017-08-12T04:55:10.682Z,35.30
2017-08-12T05:00:13.931Z,35.17
2017-08-12T05:05:16.666Z,38.13
2017-08-12T05:10:18.671Z,37.97
2017-08-12T05:15:21.353Z,35.83
2017-08-12T05:20:23.557Z,36.37
2017-08-12T05:25:25.892Z,35.00
2017-08-12T05:30:29.083Z,35.43
2017-08-12T05:35:31.976Z,33.97
2017-08-12T05:40:36.404Z,35.87
2017-08-12T05:45:38.425Z,34.33
2017-08-12T05:50:40.384Z,34.13
2017-08-12T05:55:43.142Z,32.20
2017-08-12T06:00:46.520Z,32.03
2017-08-12T06:05:49.092Z,31.50
2017-08-12T06:10:51.091Z,32.00
2017-08-12T06:15:53.052Z,31.50
2017-08-12T06:20:54.995Z,30.87
2017-08-12T06:25:56.950Z,29.77
2017-08-12T06:30:58.920Z,31.27
2017-08-12T06:36:00.876Z,33.90
2017-08-12T06:41:03.616Z,35.17
2017-08-12T06:46:05.568Z,35.57
2017-08-12T06:51:07.518Z,33.27
2017-08-12T06:56:09.470Z,33.83
2017-08-12T07:01:12.209Z,35.63
2017-08-12T07:06:14.534Z,34.70
2017-08-12T07:11:17.052Z,31.60
2017-08-12T07:16:19.784Z,32.40
2017-08-12T07:21:21.955Z,30.77
2017-08-12T07:26:23.918Z,27.90
2017-08-12T07:31:25.993Z,29.07
2017-08-12T07:36:28.054Z,25.57
2017-08-12T07:41:30.009Z,25.10
2017-08-12T07:46:32.028Z,27.97
2017-08-12T07:51:35.005Z,25.93
2017-08-12T07:56:37.087Z,24.90
2017-08-12T08:01:39.834Z,26.20
2017-08-12T08:06:41.889Z,24.67
2017-08-12T08:11:43.981Z,25.03
2017-08-12T08:16:46.706Z,25.90
2017-08-12T08:21:48.673Z,25.90
2017-08-12T08:26:51.567Z,27.50
2017-08-12T08:31:53.739Z,26.20
2017-08-12T08:36:55.716Z,28.13
2017-08-12T08:41:57.675Z,28.50
2017-08-12T08:46:59.643Z,29.00
2017-08-12T08:52:01.581Z,29.57
2017-08-12T08:57:03.878Z,29.63
2017-08-12T09:02:06.007Z,29.43
2017-08-12T09:07:07.951Z,31.33
2017-08-12T09:12:09.927Z,30.90
2017-08-12T09:17:12.623Z,29.50
2017-08-12T09:22:14.597Z,27.50
2017-08-12T09:27:16.614Z,26.77
2017-08-12T09:32:19.264Z,25.60
2017-08-12T09:37:21.939Z,25.37
2017-08-12T09:42:23.934Z,23.93
2017-08-12T09:47:25.875Z,22.73
2017-08-12T09:52:27.910Z,21.30
2017-08-12T09:57:29.938Z,21.10
2017-08-12T10:02:31.886Z,20.47
2017-08-12T10:07:33.845Z,20.97
2017-08-12T10:12:35.887Z,20.63
2017-08-12T10:17:37.874Z,19.50
2017-08-12T10:22:39.859Z,19.17
2017-08-12T10:27:41.892Z,19.33
2017-08-12T10:32:43.849Z,16.93
2017-08-12T10:37:46.567Z,14.97
2017-08-12T10:42:48.552Z,14.37
2017-08-12T10:47:50.561Z,12.90
2017-08-12T10:52:52.618Z,11.87
2017-08-12T10:57:54.620Z,12.53
2017-08-12T11:02:56.611Z,11.37
2017-08-12T11:07:59.244Z,11.67
2017-08-12T11:13:01.251Z,12.27
2017-08-12T11:18:03.261Z,12.47
2017-08-12T11:23:05.185Z,11.93
2017-08-12T11:28:07.201Z,13.10
2017-08-12T11:33:09.133Z,11.80
2017-08-12T11:38:11.091Z,10.70
2017-08-12T11:43:13.826Z,11.60
2017-08-12T11:48:15.801Z,10.47
2017-08-12T11:53:17.765Z,10.30
2017-08-12T11:58:20.476Z,9.63
2017-08-12T12:03:22.439Z,9.90
2017-08-12T12:08:24.376Z,9.00
2017-08-12T12:13:26.387Z,10.77
2017-08-12T12:18:29.042Z,9.60
2017-08-12T12:23:31.142Z,9.70
2017-08-12T12:28:33.152Z,8.33
2017-08-12T12:33:35.813Z,7.93
2017-08-12T12:38:37.780Z,6.63
2017-08-12T12:43:39.761Z,6.30
2017-08-12T12:48:41.766Z,6.13
2017-08-12T12:53:43.727Z,6.63
2017-08-12T12:58:45.713Z,5.77
2017-08-12T13:03:47.713Z,5.90
2017-08-12T13:08:49.681Z,6.07
2017-08-12T13:13:51.706Z,5.50
2017-08-12T13:18:54.070Z,5.47
2017-08-12T13:23:56.026Z,5.40
2017-08-12T13:28:57.998Z,6.67
2017-08-12T13:33:59.987Z,6.30
2017-08-12T13:39:02.859Z,7.33
2017-08-12T13:44:12.499Z,6.93
2017-08-12T13:49:14.514Z,7.40
2017-08-12T13:54:16.587Z,7.93
2017-08-12T13:59:18.627Z,8.47
2017-08-12T14:04:21.385Z,8.47
2017-08-12T14:09:23.306Z,8.80
2017-08-12T14:14:25.325Z,10.97
2017-08-12T14:19:27.266Z,11.87
2017-08-12T14:24:29.283Z,14.57
2017-08-12T14:29:31.980Z,14.73
2017-08-12T14:34:33.926Z,15.03
2017-08-12T14:39:35.969Z,17.00
2017-08-12T14:44:37.930Z,17.90
2017-08-12T14:49:39.920Z,19.40
2017-08-12T14:54:41.845Z,18.10
2017-08-12T14:59:44.882Z,17.10
2017-08-12T15:04:46.937Z,16.83
2017-08-12T15:09:48.986Z,15.27
2017-08-12T15:14:51.023Z,15.17
2017-08-12T15:19:53.011Z,14.90
2017-08-12T15:24:54.956Z,15.57
2017-08-12T15:34:59.073Z,16.03
2017-08-12T15:40:01.081Z,16.03
2017-08-12T15:45:03.219Z,14.63
2017-08-12T15:50:05.146Z,13.80
2017-08-12T15:55:07.151Z,14.13
2017-08-12T16:00:09.115Z,14.07
2017-08-12T16:05:11.120Z,14.13
2017-08-12T16:10:13.128Z,12.80
2017-08-12T16:15:15.176Z,12.20
2017-08-12T16:20:17.943Z,12.50
2017-08-12T16:25:20.005Z,12.20
2017-08-12T16:30:22.719Z,11.77
2017-08-12T16:35:24.680Z,13.90
2017-08-12T16:40:26.687Z,15.17
2017-08-12T16:45:28.684Z,17.63
2017-08-12T16:50:30.636Z,18.30
2017-08-12T16:55:32.587Z,19.03
2017-08-12T17:00:34.592Z,19.00
2017-08-12T17:05:36.569Z,19.47
2017-08-12T17:10:38.569Z,21.43
2017-08-12T17:15:40.539Z,21.80
2017-08-12T17:20:43.596Z,20.70
2017-08-12T17:25:47.888Z,22.23
2017-08-12T17:30:50.003Z,23.10
2017-08-12T17:35:52.003Z,23.60
2017-08-12T17:40:53.924Z,24.10
2017-08-12T17:45:55.922Z,24.77
2017-08-12T17:50:58.660Z,24.40
2017-08-12T17:56:00.604Z,25.30
2017-08-12T18:01:02.628Z,25.50
2017-08-12T18:06:05.495Z,25.77
2017-08-12T18:11:07.594Z,25.43
2017-08-12T18:16:09.520Z,23.73
2017-08-12T18:21:11.465Z,23.17
2017-08-12T18:26:13.589Z,24.30
2017-08-12T18:31:15.718Z,22.50
2017-08-12T18:36:17.785Z,22.60
2017-08-12T18:41:22.340Z,22.10
2017-08-12T18:46:26.527Z,20.80
2017-08-12T18:51:28.479Z,20.47
2017-08-12T18:56:30.411Z,22.20
2017-08-12T19:01:32.919Z,22.10
2017-08-12T19:06:35.801Z,20.93
2017-08-12T19:11:38.828Z,22.33
2017-08-12T19:16:43.454Z,25.03
2017-08-12T19:21:48.044Z,23.63
2017-08-12T19:26:50.128Z,24.20
2017-08-12T19:31:52.109Z,24.20
2017-08-12T19:36:54.337Z,22.50
2017-08-12T19:41:57.025Z,22.33
2017-08-12T19:46:58.990Z,20.77
2017-08-12T19:52:01.028Z,21.60
2017-08-12T19:57:02.987Z,23.20
2017-08-12T20:02:05.015Z,24.60
2017-08-12T20:07:06.955Z,26.77
2017-08-12T20:12:09.001Z,27.20
2017-08-12T20:17:11.233Z,29.60
2017-08-12T20:22:13.310Z,30.17
2017-08-12T20:27:15.342Z,32.67
2017-08-12T20:32:17.616Z,35.70
2017-08-12T20:37:19.752Z,38.10
2017-08-12T20:42:21.721Z,36.77
2017-08-12T20:47:23.808Z,38.80
2017-08-12T20:52:25.768Z,39.27
2017-08-12T20:57:27.794Z,35.80
2017-08-12T21:02:29.771Z,38.10
2017-08-12T21:07:32.519Z,38.17
2017-08-12T21:12:34.584Z,36.43
2017-08-12T21:17:36.556Z,37.43
2017-08-12T21:22:39.503Z,36.57
2017-08-12T21:27:41.468Z,39.17
2017-08-12T21:32:44.156Z,37.80
2017-08-12T21:37:46.346Z,38.73
2017-08-12T21:42:49.095Z,38.90
2017-08-12T21:47:51.100Z,40.47
2017-08-12T21:52:53.198Z,41.37
2017-08-12T21:57:55.187Z,41.80
2017-08-12T22:02:58.259Z,40.80
2017-08-12T22:08:00.579Z,37.30
2017-08-12T22:13:03.007Z,38.30
2017-08-12T22:18:04.980Z,37.77
2017-08-12T22:23:06.899Z,37.83
2017-08-12T22:28:08.861Z,40.50
2017-08-12T22:33:11.352Z,40.43
2017-08-12T22:38:13.307Z,34.93
2017-08-12T22:43:15.278Z,37.90
2017-08-12T22:48:17.567Z,35.67
2017-08-12T22:53:19.789Z,35.17
2017-08-12T22:58:22.106Z,35.10
2017-08-12T23:03:24.102Z,32.97
2017-08-12T23:08:26.825Z,34.47
2017-08-12T23:13:28.821Z,30.77
2017-08-12T23:18:30.806Z,31.17
2017-08-12T23:23:32.844Z,29.60
2017-08-12T23:28:34.922Z,26.40
2017-08-12T23:33:36.858Z,26.07
2017-08-12T23:38:38.800Z,23.70
2017-08-12T23:43:40.747Z,20.13
2017-08-12T23:48:42.703Z,17.90
2017-08-12T23:53:44.648Z,15.40
2017-08-12T23:58:46.610Z,14.33
